Observations for RONCHI LEGIONARI AB, Italy (LIPQ)

LIPQ 200620Z VRB01KT CAVOK 13/08 Q1027  
LIPQ 200550Z VRB02KT CAVOK 11/07 Q1027  
LIPQ 200520Z 01003KT CAVOK 07/05 Q1027  
LIPQ 200450Z 03002KT CAVOK 06/05 Q1027  
LIPQ 200420Z VRB02KT CAVOK 06/05 Q1027  
LIPQ 200350Z AUTO 01002KT 9999 NCD 06/05 Q1027  
LIPQ 200320Z AUTO VRB01KT 9999 NCD 06/05 Q1027  
LIPQ 200250Z AUTO VRB02KT 9999 NCD 06/05 Q1027  
LIPQ 200220Z AUTO VRB02KT 9999 NCD 08/05 Q1027  
LIPQ 200150Z AUTO VRB01KT 9999 NCD 07/06 Q1027  
LIPQ 200120Z AUTO 35002KT 9999 NCD 06/04 Q1027  
LIPQ 200050Z AUTO 02003KT 9999 NCD 08/06 Q1028  
LIPQ 200020Z AUTO 01002KT 9999 NCD 08/05 Q1028  
LIPQ 192350Z AUTO 01003KT 9999 NCD 08/05 Q1028  
LIPQ 192320Z AUTO VRB01KT 9999 NCD 08/05 Q1028  
LIPQ 192250Z AUTO 08002KT 9999 NCD 09/05 Q1028  
LIPQ 192220Z AUTO 08002KT 9999 NCD 10/05 Q1028  
LIPQ 192150Z 09006KT CAVOK 11/04 Q1028  
LIPQ 192120Z 10006KT CAVOK 11/05 Q1028  
LIPQ 192050Z 10004KT 040V120 CAVOK 12/05 Q1028  
LIPQ 192020Z 12003KT CAVOK 13/07 Q1028  
LIPQ 191950Z 14003KT CAVOK 14/08 Q1028  
LIPQ 191920Z 16004KT CAVOK 14/09 Q1028  
LIPQ 191850Z 14004KT CAVOK 14/08 Q1028  
LIPQ 191820Z 15004KT CAVOK 15/08 Q1027  
LIPQ 191750Z 13006KT CAVOK 16/09 Q1027  
LIPQ 191720Z 17005KT 140V200 CAVOK 19/08 Q1027  
LIPQ 191650Z 22007KT CAVOK 20/06 Q1027  
LIPQ 191620Z 23010KT CAVOK 21/05 Q1027  
LIPQ 191550Z 23010KT CAVOK 21/06 Q1027  
LIPQ 191520Z 22011KT CAVOK 22/06 Q1027  
LIPQ 191450Z 24009KT 180V290 CAVOK 23/07 Q1027  
LIPQ 191420Z 28006KT 250V310 CAVOK 22/05 Q1027  
LIPQ 191350Z 25006KT 210V300 CAVOK 22/05 Q1027  
LIPQ 191320Z 25006KT 210V290 CAVOK 22/04 Q1028  
LIPQ 191250Z 25008KT 210V310 CAVOK 22/05 Q1028  
LIPQ 191220Z 29004KT 200V350 CAVOK 22/05 Q1028  
LIPQ 191150Z 33003KT 270V030 CAVOK 21/04 Q1028  
LIPQ 191120Z 19004KT 150V270 CAVOK 21/03 Q1029  
LIPQ 191050Z VRB03KT CAVOK 21/03 Q1029  
LIPQ 191020Z VRB03KT CAVOK 21/04 Q1029  
LIPQ 190950Z VRB04KT CAVOK 21/04 Q1029  
LIPQ 190920Z 09007KT 030V150 CAVOK 20/04 Q1030  
LIPQ 190850Z 09007KT 040V130 CAVOK 20/04 Q1030  
LIPQ 190820Z 36005KT 320V070 CAVOK 19/07 Q1030  
LIPQ 190750Z 36004KT 320V070 CAVOK 18/07 Q1030  
LIPQ 190720Z 36004KT 320V020 CAVOK 16/07 Q1030  
LIPQ 190650Z 01006KT CAVOK 15/07 Q1030  
LIPQ 190620Z 01004KT CAVOK 13/07 Q1030  
LIPQ 190550Z 01005KT CAVOK 11/06 Q1029